createdAt,value
2018-11-20T00:07:46.056Z,96868.19
2018-11-20T00:18:12.860Z,96838.94
2018-11-20T00:28:47.788Z,96844.56
2018-11-20T00:39:22.838Z,96843.53
2018-11-20T00:50:00.256Z,96826.84
2018-11-20T01:00:53.223Z,96808.53
2018-11-20T01:11:30.437Z,96787.98
2018-11-20T01:22:00.195Z,96768.47
2018-11-20T01:32:30.575Z,96772.83
2018-11-20T01:43:13.305Z,96754.27
2018-11-20T01:53:49.451Z,96746.17
2018-11-20T02:04:19.905Z,96733.83
2018-11-20T02:14:55.974Z,96736.81
2018-11-20T02:25:52.262Z,96737.95
2018-11-20T02:36:35.329Z,96728.50
2018-11-20T02:47:17.338Z,96722.62
2018-11-20T02:58:06.632Z,96723.08
2018-11-20T03:08:43.083Z,96697.92
2018-11-20T03:19:26.363Z,96704.13
2018-11-20T03:31:14.514Z,96698.50
2018-11-20T03:41:54.177Z,96712.02
2018-11-20T03:52:29.203Z,96686.78
2018-11-20T04:03:18.837Z,96677.48
2018-11-20T04:13:46.063Z,96666.23
2018-11-20T04:24:25.957Z,96657.64
2018-11-20T04:35:00.734Z,96669.52
2018-11-20T04:45:30.915Z,96664.83
2018-11-20T04:56:11.851Z,96641.27
2018-11-20T05:06:47.227Z,96633.50
2018-11-20T05:17:23.817Z,96641.76
2018-11-20T05:28:13.183Z,96667.14
2018-11-20T05:38:45.783Z,96635.70
2018-11-20T05:49:25.887Z,96629.47
2018-11-20T06:00:03.093Z,96626.23
2018-11-20T06:10:49.631Z,96591.36
2018-11-20T06:21:20.810Z,96583.47
2018-11-20T06:31:56.468Z,96602.51
2018-11-20T06:42:44.977Z,96617.59
2018-11-20T06:53:21.351Z,96650.43
2018-11-20T07:03:59.318Z,96615.28
2018-11-20T07:14:44.190Z,96643.00
2018-11-20T07:25:21.436Z,96633.62
2018-11-20T07:36:08.396Z,96631.20
2018-11-20T07:46:44.422Z,96635.11
2018-11-20T07:57:27.510Z,96632.46
2018-11-20T08:08:03.501Z,96621.70
2018-11-20T08:18:43.513Z,96627.47
2018-11-20T08:29:29.559Z,96618.55
2018-11-20T08:40:05.341Z,96597.64
2018-11-20T08:50:42.607Z,96594.23
2018-11-20T09:01:23.014Z,96579.44
2018-11-20T09:12:08.581Z,96558.80
2018-11-20T09:22:45.827Z,96557.75
2018-11-20T09:33:20.849Z,96529.25
2018-11-20T09:44:06.640Z,96522.42
2018-11-20T09:54:42.464Z,96520.05
2018-11-20T10:05:19.041Z,96516.79
2018-11-20T10:15:54.965Z,96495.76
2018-11-20T10:26:40.896Z,96485.55
2018-11-20T10:38:39.502Z,96459.89
2018-11-20T10:49:11.655Z,96464.21
2018-11-20T11:00:06.957Z,96473.22
2018-11-20T11:10:43.258Z,96458.34
2018-11-20T11:21:18.842Z,96457.33
2018-11-20T11:31:58.633Z,96439.53
2018-11-20T11:42:29.834Z,96427.17
2018-11-20T11:53:06.940Z,96425.98
2018-11-20T12:03:43.074Z,96430.20
2018-11-20T12:14:20.202Z,96443.63
2018-11-20T12:24:56.435Z,96437.45
2018-11-20T12:35:47.835Z,96443.95
2018-11-20T12:46:25.944Z,96444.84
2018-11-20T12:57:06.112Z,96431.45
2018-11-20T13:07:35.935Z,96406.55
2018-11-20T13:18:11.767Z,96427.17
2018-11-20T13:28:49.108Z,96434.21
2018-11-20T13:39:37.045Z,96417.84
2018-11-20T13:50:20.072Z,96426.81
2018-11-20T14:01:12.087Z,96418.02
2018-11-20T14:11:52.381Z,96395.08
2018-11-20T14:22:21.765Z,96381.61
2018-11-20T14:32:49.386Z,96373.22
2018-11-20T14:43:28.571Z,96362.17
2018-11-20T14:54:17.677Z,96344.72
2018-11-20T15:04:54.874Z,96334.00
2018-11-20T15:15:49.750Z,96333.40
2018-11-20T15:26:32.632Z,96338.02
2018-11-20T15:37:08.743Z,96343.61
2018-11-20T15:47:52.166Z,96345.19
2018-11-20T15:58:21.895Z,96331.23
2018-11-20T16:09:08.377Z,96341.82
2018-11-20T16:19:39.949Z,96331.75
2018-11-20T16:30:15.614Z,96325.13
2018-11-20T16:40:45.488Z,96349.93
2018-11-20T16:51:31.170Z,96366.16
2018-11-20T17:02:11.009Z,96388.91
2018-11-20T17:12:49.219Z,96397.00
2018-11-20T17:23:31.262Z,96418.52
2018-11-20T17:34:07.317Z,96434.38
2018-11-20T17:44:40.188Z,96448.38
2018-11-20T17:55:07.720Z,96467.09
2018-11-20T18:05:46.650Z,96464.15
2018-11-20T18:16:33.058Z,96481.52
2018-11-20T18:27:04.449Z,96483.05
2018-11-20T18:37:44.422Z,96495.76
2018-11-20T18:48:20.400Z,96512.22
2018-11-20T18:59:08.182Z,96515.53
2018-11-20T19:10:03.334Z,96526.64
2018-11-20T19:20:39.137Z,96537.34
2018-11-20T19:31:28.192Z,96543.28
2018-11-20T19:42:07.972Z,96535.15
2018-11-20T19:53:03.584Z,96567.64
2018-11-20T20:03:39.119Z,96579.28
2018-11-20T20:14:15.579Z,96589.86
2018-11-20T20:24:51.312Z,96604.06
2018-11-20T20:35:42.601Z,96611.81
2018-11-20T20:46:20.045Z,96616.14
2018-11-20T20:56:55.983Z,96623.91
2018-11-20T21:07:48.285Z,96639.94
2018-11-20T21:18:24.010Z,96646.53
2018-11-20T21:29:00.938Z,96643.27
2018-11-20T21:39:38.212Z,96676.83
2018-11-20T21:50:30.298Z,96681.96
2018-11-20T22:01:08.492Z,96695.20
2018-11-20T22:11:52.944Z,96713.72
2018-11-20T22:22:48.196Z,96713.59
2018-11-20T22:33:23.830Z,96724.39
2018-11-20T22:44:00.221Z,96733.27
2018-11-20T22:54:31.468Z,96737.77
2018-11-20T23:05:07.104Z,96732.45
2018-11-20T23:15:25.222Z,96737.47
2018-11-20T23:25:43.279Z,96740.23
2018-11-20T23:36:01.625Z,96738.98
2018-11-20T23:46:19.815Z,96735.68
2018-11-20T23:56:37.952Z,96738.48
